AirNav   Pilot Hours Calculator
 
 840 users online  

OH15 Minerva Airport
Minerva, Ohio, USA

GOING TO MINERVA?


FAA INFORMATION EFFECTIVE 10 OCTOBER 2019

Location

FAA Identifier: OH15
Lat/Long: 40-44-45.2130N 081-08-39.3640W
40-44.753550N 081-08.656067W
40.7458925,-81.1442678
(estimated)
Elevation: 1080 ft. / 329 m (estimated)
Variation: 07W (1985)
From city: 3 miles NW of MINERVA, OH
Time zone: UTC -4 (UTC -5 during Standard Time)
Zip code: 44657

Airport Operations

Airport use: Private use. Permission required prior to landing
Activation date: 09/1953
Control tower: no
ARTCC: CLEVELAND CENTER
FSS: CLEVELAND FLIGHT SERVICE STATION
OR LOCAL CALL 494-5870.
Attendance: UNATNDD
Wind indicator: yes
Segmented circle: no
Lights: SS-SR

Airport Communications

WX ASOS at CAK (17 nm NW): PHONE 330-493-5260

Nearby radio navigation aids

VOR radial/distance  VOR name  Freq  Var
BSVr093/13.1BRIGGS VOR/DME112.4004W
ACOr177/21.9AKRON VOR/DME114.4004W
CTWr033/34.5NEWCOMERSTOWN VOR/DME111.8007W
HLGr325/39.2WHEELING VOR/DME112.2007W

 
NDB name  Hdg/Dist  Freq  Var  ID
CADIZ356/31.123907WCFX -.-. ..-. -..-
CASTLE252/37.027209WUCP ..- -.-. .--.

Airport Services

Parking: tiedowns
Airframe service: NONE
Powerplant service: NONE
Bottled oxygen: NONE
Bulk oxygen: NONE

Runway Information

Runway 1/19

Dimensions: 2500 x 104 ft. / 762 x 32 m
Surface: turf
Runway edge lights: low intensity
RWY LGTS ON EAST SIDE OF RWY ONLY; 1600' OF RWY LGTD; SOUTH 900' OF RWY UNLGTD.
RUNWAY 1  RUNWAY 19
Latitude: 40-44.554167N40-44.952667N
Longitude: 081-08.723667W081-08.588167W
Elevation: 1080.0 ft.1080.0 ft.
Traffic pattern: leftleft
Markings: nonenone
Runway end identifier lights: nono
Obstructions: 35 ft. pline, 125 ft. from runway, 50 ft. right of centerline, 4:1 slope to clear50 ft. ant, 600 ft. from runway, 60 ft. right of centerline, 12:1 slope to clear

Airport Ownership and Management from official FAA records

Ownership: Privately-owned
MEMBERS ONLY
Owner: HOSTERMANFIELD LLC
1216 FOX AVE.
PARIS, OH 44666
Manager: MINERVA FLYING ASSOC
224 WEST BEECH ST.
ALLIANCE, OH 44601
Phone 330-823-9325
ADDITIONAL CONTACT: DOUG HOSTERMAN 1254 FOX AVE SE PARIS, OHIO 44669 303-323-8950

Airport Operational Statistics

Aircraft based on the field: 31
Single engine airplanes: 29
Multi engine airplanes: 1
Ultralights: 1
    
Aircraft operations: avg 59/week *
84% local general aviation
16% transient general aviation
* for 12-month period ending 09 October 1981

Additional Remarks

RWY COND GOOD WITH TURF SLOPING TO WEST; LAST 900' OF RWY 19 IS ROLLING.
FLOODLIGHTS ON HGRS W SIDE OUTLINE STRIP AND OPER CONCURRENT W/RUNWAY LGTS ON E SIDE.
FLOODLIGHT ON POLE WEST OF RWY 500' FM THR RWY 19.
NIGHT LANDINGS NOT RECOMMENDED.
FOR CD CTC CLEVELAND APCH AT 216-352-2323, WHEN APCH CLSD CTC CLEVELAND ARTCC AT 440-774-0490.

Instrument Procedures

There are no published instrument procedures at OH15.

Some nearby airports with instrument procedures:

KTSO - Carroll County-Tolson Airport (11 nm S)
3G6 - Tri-City Airport (12 nm NE)
KCAK - Akron-Canton Regional Airport (17 nm NW)
38D - Salem Airpark Inc (18 nm NE)
KPHD - Harry Clever Field Airport (21 nm SW)
 
Loc | Ops | Rwys | IFR | FBO | Links
Com | Nav | Svcs | Stats | Notes
Area around OH15 (Minerva Airport)
 
Road maps at: MapQuest Bing Google
 
Aerial photo
No photo
 
Sectional chart

 
Airport distance calculator
Flying to Minerva Airport? Find the distance to fly.

From to OH15

Sunrise and sunset
Times for 19-Oct-2019
 Local
(UTC-4)
 Zulu
(UTC)
Morning civil twilight07:1311:13
Sunrise07:4111:41
Sunset18:3822:38
Evening civil twilight19:0623:06

Current date and time
Zulu (UTC)  19-Oct-2019 13:33:03
Local (UTC-4)  19-Oct-2019 09:33:03
 
METAR
KCAK 
17nm NW 
191251Z 13008KT 10SM FEW250 07/03 A3003 RMK AO2 SLP176 T00670033
KPHD 
21nm SW 
191323Z AUTO 00000KT 9SM SCT001 04/03 A3004 RMK AO2 T00390028
KAKR 
23nm NW 
191254Z AUTO 00000KT 10SM CLR 05/03 A3003 RMK AO2 SLP175 T00500028
KPOV 
28nm N 
191315Z AUTO 11004KT 10SM CLR 05/03 A3004 RMK AO2 T00480030 PWINO
KBVI 
34nm E 
191316Z AUTO 00000KT 10SM CLR 06/03 A3005 RMK AO2 T00600026
KBJJ 
34nm W 
191256Z AUTO 00000KT 6SM BR CLR 03/02 A3003 RMK AO2 SLP179 T00280022
TAF
KCAK 
17nm NW 
191135Z 1912/2012 13005KT P6SM FEW170 FEW250
NOTAMs
Click for the latest NOTAMs
NOTAMs are issued by the DoD/FAA and will open in a separate window not controlled by AirNav.

 

 
 

Would you like to see your business listed on this page?

 If your business provides an interesting product or service to pilots, flight crews, aircraft, or users of the Minerva Airport, you should consider listing it here.  To start the listing process, click on the button below
 
Add a business
 

Other Pages about Minerva Airport

Update a link
 
Copyright © AirNav, LLC. All rights reserved. Privacy Policy  Contact